createdAt,value
2019-03-30T00:01:14.639Z,20.60
2019-03-30T00:03:44.572Z,20.07
2019-03-30T00:06:14.534Z,21.40
2019-03-30T00:08:44.619Z,22.13
2019-03-30T00:11:16.608Z,19.90
2019-03-30T00:13:46.222Z,19.87
2019-03-30T00:16:15.797Z,20.40
2019-03-30T00:18:45.535Z,22.07
2019-03-30T00:21:15.172Z,20.90
2019-03-30T00:23:46.680Z,21.43
2019-03-30T00:26:15.901Z,19.57
2019-03-30T00:28:45.567Z,20.63
2019-03-30T00:31:15.200Z,22.03
2019-03-30T00:33:45.717Z,21.50
2019-03-30T00:36:15.204Z,19.80
2019-03-30T00:38:45.393Z,20.17
2019-03-30T00:41:15.034Z,20.53
2019-03-30T00:43:44.534Z,21.70
2019-03-30T00:46:14.094Z,20.53
2019-03-30T00:48:43.544Z,21.37
2019-03-30T00:51:15.342Z,21.60
2019-03-30T00:53:48.847Z,18.67
2019-03-30T00:56:20.165Z,21.23
2019-03-30T00:58:49.788Z,19.23
2019-03-30T01:01:19.370Z,19.03
2019-03-30T01:03:48.934Z,20.40
2019-03-30T01:06:21.592Z,19.93
2019-03-30T01:08:51.085Z,18.37
2019-03-30T01:11:20.966Z,22.17
2019-03-30T01:13:50.591Z,21.20
2019-03-30T01:16:20.791Z,19.73
2019-03-30T01:18:50.500Z,19.27
2019-03-30T01:21:20.097Z,18.40
2019-03-30T01:23:49.723Z,19.87
2019-03-30T01:26:19.413Z,20.80
2019-03-30T01:28:48.961Z,19.67
2019-03-30T01:31:18.511Z,20.23
2019-03-30T01:33:48.016Z,19.47
2019-03-30T01:36:18.037Z,18.50
2019-03-30T01:38:47.816Z,20.07
2019-03-30T01:41:17.461Z,20.87
2019-03-30T01:43:47.310Z,19.00
2019-03-30T01:46:20.259Z,19.33
2019-03-30T01:48:50.744Z,19.07
2019-03-30T01:51:20.587Z,19.10
2019-03-30T01:53:50.205Z,19.87
2019-03-30T01:56:26.930Z,19.17
2019-03-30T01:58:56.461Z,17.43
2019-03-30T02:01:26.074Z,18.37
2019-03-30T02:03:55.937Z,19.67
2019-03-30T02:06:25.501Z,19.67
2019-03-30T02:08:55.090Z,21.10
2019-03-30T02:11:24.723Z,21.40
2019-03-30T02:13:54.326Z,22.13
2019-03-30T02:16:23.872Z,21.50
2019-03-30T02:18:53.623Z,19.90
2019-03-30T02:21:23.643Z,18.97
2019-03-30T02:23:53.198Z,19.80
2019-03-30T02:26:22.630Z,18.63
2019-03-30T02:28:52.170Z,18.60
2019-03-30T02:31:21.681Z,19.00
2019-03-30T02:33:51.592Z,20.60
2019-03-30T02:36:21.058Z,19.17
2019-03-30T02:38:51.609Z,19.17
2019-03-30T02:41:21.311Z,19.33
2019-03-30T02:43:51.029Z,17.97
2019-03-30T02:46:21.213Z,17.23
2019-03-30T02:48:51.657Z,17.30
2019-03-30T02:51:21.601Z,18.03
2019-03-30T02:53:51.604Z,17.23
2019-03-30T02:56:21.215Z,18.57
2019-03-30T02:58:50.728Z,16.50
2019-03-30T03:01:20.329Z,16.97
2019-03-30T03:03:49.956Z,15.67
2019-03-30T03:06:19.703Z,16.67
2019-03-30T03:08:49.229Z,17.40
2019-03-30T03:11:21.006Z,15.47
2019-03-30T03:13:50.778Z,14.60
2019-03-30T03:16:20.446Z,15.63
2019-03-30T03:18:50.011Z,14.43
2019-03-30T03:21:19.922Z,15.33
2019-03-30T03:23:49.588Z,14.77
2019-03-30T03:26:19.261Z,15.50
2019-03-30T03:28:49.192Z,15.03
2019-03-30T03:31:23.649Z,13.50
2019-03-30T03:33:53.199Z,15.40
2019-03-30T03:36:25.734Z,15.47
2019-03-30T03:38:55.245Z,14.97
2019-03-30T03:41:25.007Z,16.13
2019-03-30T03:43:54.494Z,14.50
2019-03-30T03:46:24.118Z,13.20
2019-03-30T03:48:55.131Z,13.90
2019-03-30T03:51:26.767Z,12.80
2019-03-30T03:53:56.804Z,15.57
2019-03-30T03:56:28.670Z,16.93
2019-03-30T03:58:58.994Z,16.90
2019-03-30T04:01:29.153Z,16.23
2019-03-30T04:04:00.383Z,15.93
2019-03-30T04:06:32.876Z,14.97
2019-03-30T04:09:06.085Z,14.47
2019-03-30T04:11:37.643Z,15.03
2019-03-30T04:14:08.539Z,15.90
2019-03-30T04:16:38.017Z,15.07
2019-03-30T04:19:07.563Z,15.40
2019-03-30T04:21:44.116Z,15.93
2019-03-30T04:24:08.270Z,16.57
2019-03-30T04:26:37.765Z,16.23
2019-03-30T04:29:07.304Z,16.10
2019-03-30T04:31:36.891Z,16.53
2019-03-30T04:34:06.912Z,14.43
2019-03-30T04:36:36.523Z,15.53
2019-03-30T04:39:06.780Z,17.17
2019-03-30T04:41:36.494Z,15.87
2019-03-30T04:44:06.123Z,17.43
2019-03-30T04:46:35.775Z,16.33
2019-03-30T04:49:05.252Z,15.63
2019-03-30T04:51:37.253Z,15.73
2019-03-30T04:54:06.782Z,14.83
2019-03-30T04:56:36.332Z,16.27
2019-03-30T04:59:06.339Z,15.27
2019-03-30T05:01:35.982Z,15.80
2019-03-30T05:04:05.729Z,15.50
2019-03-30T05:06:35.411Z,15.20
2019-03-30T05:09:06.606Z,15.20
2019-03-30T05:11:36.313Z,14.80
2019-03-30T05:14:05.987Z,15.43
2019-03-30T05:16:35.571Z,16.47
2019-03-30T05:19:05.127Z,15.37
2019-03-30T05:21:34.731Z,15.50
2019-03-30T05:24:04.849Z,16.30
2019-03-30T05:26:34.518Z,15.43
2019-03-30T05:29:04.146Z,16.63
2019-03-30T05:31:33.883Z,15.57
2019-03-30T05:34:03.705Z,15.53
2019-03-30T05:36:33.352Z,16.13
2019-03-30T05:39:04.307Z,15.30
2019-03-30T05:41:33.999Z,15.17
2019-03-30T05:44:03.770Z,16.30
2019-03-30T05:46:33.235Z,13.80
2019-03-30T05:49:03.403Z,14.13
2019-03-30T05:51:32.967Z,14.83
2019-03-30T05:54:02.454Z,14.40
2019-03-30T05:56:32.207Z,14.93
2019-03-30T05:59:01.762Z,14.17
2019-03-30T06:01:31.166Z,14.83
2019-03-30T06:04:00.750Z,14.67
2019-03-30T06:06:30.405Z,13.07
2019-03-30T06:09:00.037Z,14.37
2019-03-30T06:11:29.621Z,13.80
2019-03-30T06:13:59.186Z,13.00
2019-03-30T06:16:28.663Z,14.03
2019-03-30T06:18:58.196Z,13.73
2019-03-30T06:21:27.694Z,14.97
2019-03-30T06:23:57.146Z,13.13
2019-03-30T06:26:26.829Z,13.83
2019-03-30T06:28:56.394Z,13.17
2019-03-30T06:31:25.850Z,12.40
2019-03-30T06:33:55.378Z,13.17
2019-03-30T06:36:24.802Z,13.73
2019-03-30T06:38:54.280Z,12.00
2019-03-30T06:41:23.826Z,12.10
2019-03-30T06:43:53.268Z,13.43
2019-03-30T06:46:22.797Z,11.57
2019-03-30T06:48:52.326Z,12.23
2019-03-30T06:51:21.804Z,13.53
2019-03-30T06:53:51.872Z,12.67
2019-03-30T06:56:21.395Z,12.40
2019-03-30T06:58:50.855Z,12.83
2019-03-30T07:01:21.082Z,12.00
2019-03-30T07:03:50.763Z,11.53
2019-03-30T07:06:21.573Z,12.27
2019-03-30T07:08:54.375Z,11.60
2019-03-30T07:11:25.971Z,11.00
2019-03-30T07:13:58.103Z,11.83
2019-03-30T07:16:31.129Z,10.40
2019-03-30T07:19:03.590Z,9.80
2019-03-30T07:21:33.020Z,13.60
2019-03-30T07:24:02.551Z,9.97
2019-03-30T07:26:31.998Z,10.77
2019-03-30T07:29:01.554Z,9.13
2019-03-30T07:31:31.103Z,10.20
2019-03-30T07:34:00.643Z,9.00
2019-03-30T07:36:30.138Z,10.60
2019-03-30T07:38:59.685Z,8.83
2019-03-30T07:41:29.251Z,9.73
2019-03-30T07:43:58.791Z,10.03
2019-03-30T07:46:28.452Z,9.87
2019-03-30T07:48:58.083Z,8.77
2019-03-30T07:51:27.792Z,10.13
2019-03-30T07:53:57.321Z,9.80
2019-03-30T07:56:27.033Z,10.23
2019-03-30T07:58:56.555Z,8.73
2019-03-30T08:01:26.106Z,9.00
2019-03-30T08:03:55.674Z,8.67
2019-03-30T08:06:25.570Z,8.77
2019-03-30T08:08:56.737Z,9.10
2019-03-30T08:11:26.446Z,8.73
2019-03-30T08:13:58.151Z,9.07
2019-03-30T08:16:27.798Z,9.27
2019-03-30T08:18:59.451Z,8.87
2019-03-30T08:21:30.068Z,8.70
2019-03-30T08:24:09.563Z,8.33
2019-03-30T08:26:39.635Z,8.97
2019-03-30T08:29:09.253Z,9.33
2019-03-30T08:31:42.086Z,8.17
2019-03-30T08:34:13.052Z,8.00
2019-03-30T08:36:42.608Z,8.13
2019-03-30T08:39:12.253Z,7.80
2019-03-30T08:41:42.281Z,8.70
2019-03-30T08:44:12.326Z,8.20
2019-03-30T08:46:42.314Z,8.77
2019-03-30T08:49:12.036Z,8.00
2019-03-30T08:51:42.232Z,8.30
2019-03-30T08:54:11.846Z,9.70
2019-03-30T08:56:41.994Z,8.10
2019-03-30T08:59:11.870Z,8.23
2019-03-30T09:01:41.386Z,8.17
2019-03-30T09:04:11.002Z,8.23
2019-03-30T09:06:40.582Z,8.03
2019-03-30T09:09:10.118Z,8.47
2019-03-30T09:11:43.299Z,6.90
2019-03-30T09:14:11.636Z,7.80
2019-03-30T09:16:41.330Z,7.77
2019-03-30T09:19:10.873Z,7.67
2019-03-30T09:21:40.867Z,7.43
2019-03-30T09:24:10.637Z,7.80
2019-03-30T09:26:40.321Z,7.77
2019-03-30T09:29:10.099Z,6.90
2019-03-30T09:31:39.555Z,7.23
2019-03-30T09:34:09.031Z,7.37
2019-03-30T09:36:38.606Z,7.20
2019-03-30T09:39:09.507Z,6.60
2019-03-30T09:41:39.001Z,6.70
2019-03-30T09:44:08.645Z,6.85
2019-03-30T09:46:38.146Z,6.70
2019-03-30T09:49:07.754Z,6.55
2019-03-30T09:51:37.297Z,7.55
2019-03-30T09:54:06.838Z,6.62
2019-03-30T09:56:36.399Z,7.08
2019-03-30T09:59:05.954Z,6.42
2019-03-30T10:01:37.475Z,7.55
2019-03-30T10:04:07.047Z,6.95
2019-03-30T10:06:36.675Z,6.60
2019-03-30T10:09:07.582Z,5.77
2019-03-30T10:11:37.158Z,6.70
2019-03-30T10:14:06.719Z,5.90
2019-03-30T10:16:36.382Z,5.30
2019-03-30T10:19:06.092Z,6.07
2019-03-30T10:21:35.931Z,4.60
2019-03-30T10:24:05.638Z,5.90
2019-03-30T10:26:35.247Z,5.13
2019-03-30T10:29:05.391Z,5.17
2019-03-30T10:31:34.977Z,5.20
2019-03-30T10:34:04.576Z,5.50
2019-03-30T10:36:34.182Z,5.87
2019-03-30T10:39:05.622Z,5.00
2019-03-30T10:41:35.307Z,5.40
2019-03-30T10:44:05.131Z,5.17
2019-03-30T10:46:34.759Z,4.80
2019-03-30T10:49:04.338Z,5.23
2019-03-30T10:51:33.847Z,5.50
2019-03-30T10:54:03.458Z,5.30
2019-03-30T10:56:33.082Z,5.73
2019-03-30T10:59:02.614Z,5.40
2019-03-30T11:01:32.179Z,6.57
2019-03-30T11:04:01.702Z,6.90
2019-03-30T11:06:31.234Z,6.17
2019-03-30T11:09:00.686Z,6.57
2019-03-30T11:11:32.412Z,7.17
2019-03-30T11:14:01.996Z,6.87
2019-03-30T11:16:31.847Z,6.10
2019-03-30T11:19:01.456Z,7.13
2019-03-30T11:21:31.081Z,7.03
2019-03-30T11:24:00.787Z,6.90
2019-03-30T11:26:30.423Z,7.23
2019-03-30T11:28:59.879Z,6.87
2019-03-30T11:31:29.503Z,7.80
2019-03-30T11:33:59.073Z,8.33
2019-03-30T11:36:28.643Z,6.80
2019-03-30T11:38:58.168Z,7.83
2019-03-30T11:41:27.686Z,7.53
2019-03-30T11:43:57.240Z,6.73
2019-03-30T11:46:26.865Z,6.73
2019-03-30T11:48:56.611Z,6.37
2019-03-30T11:51:26.329Z,7.83
2019-03-30T11:53:55.963Z,7.63
2019-03-30T11:56:25.467Z,6.47
2019-03-30T11:58:54.956Z,6.40
2019-03-30T12:01:24.636Z,7.50
2019-03-30T12:03:54.301Z,5.97
2019-03-30T12:06:24.083Z,6.90
2019-03-30T12:08:56.046Z,7.03
2019-03-30T12:11:25.613Z,6.63
2019-03-30T12:13:55.359Z,6.47
2019-03-30T12:16:24.978Z,6.83
2019-03-30T12:18:54.683Z,6.10
2019-03-30T12:21:24.202Z,7.27
2019-03-30T12:23:53.718Z,6.23
2019-03-30T12:26:23.233Z,7.00
2019-03-30T12:28:52.739Z,7.63
2019-03-30T12:31:22.277Z,6.50
2019-03-30T12:33:51.950Z,6.63
2019-03-30T12:36:21.707Z,5.77
2019-03-30T12:38:51.582Z,6.37
2019-03-30T12:41:21.502Z,5.87
2019-03-30T12:43:51.119Z,6.03
2019-03-30T12:46:20.660Z,6.17
2019-03-30T12:48:50.500Z,6.43
2019-03-30T12:51:20.195Z,6.33
2019-03-30T12:53:50.752Z,5.20
2019-03-30T12:56:20.669Z,5.53
2019-03-30T12:58:50.876Z,6.37
2019-03-30T13:01:20.495Z,6.80
2019-03-30T13:03:50.424Z,6.17
2019-03-30T13:06:20.194Z,6.23
2019-03-30T13:08:49.603Z,5.63
2019-03-30T13:11:19.787Z,5.00
2019-03-30T13:13:49.313Z,6.40
2019-03-30T13:16:18.857Z,15.23
2019-03-30T13:18:48.424Z,35.37
2019-03-30T13:21:17.915Z,65.50
2019-03-30T13:23:47.414Z,31.50
2019-03-30T13:26:16.916Z,11.70
2019-03-30T13:28:48.889Z,11.47
2019-03-30T13:31:18.527Z,6.70
2019-03-30T13:33:48.060Z,7.10
2019-03-30T13:36:18.367Z,7.60
2019-03-30T13:38:47.820Z,6.37
2019-03-30T13:41:17.389Z,6.40
2019-03-30T13:43:47.072Z,6.37
2019-03-30T13:46:16.680Z,7.73
2019-03-30T13:48:46.256Z,16.07
2019-03-30T13:51:15.819Z,6.90
2019-03-30T13:53:45.346Z,6.13
2019-03-30T13:56:17.339Z,89.03
2019-03-30T13:58:46.170Z,7.50
2019-03-30T14:01:15.795Z,7.37
2019-03-30T14:03:45.384Z,6.97
2019-03-30T14:06:15.061Z,9.33
2019-03-30T14:08:44.552Z,7.90
2019-03-30T14:11:14.226Z,8.83
2019-03-30T14:13:44.022Z,7.83
2019-03-30T14:16:16.025Z,8.87
2019-03-30T14:18:45.518Z,10.83
2019-03-30T14:21:15.114Z,10.30
2019-03-30T14:23:45.367Z,9.13
2019-03-30T14:26:30.446Z,9.33
2019-03-30T14:28:47.872Z,11.40
2019-03-30T14:31:17.463Z,8.47
2019-03-30T14:33:47.074Z,7.40
2019-03-30T14:36:16.806Z,7.27
2019-03-30T14:38:46.643Z,6.60
2019-03-30T14:41:16.774Z,6.93
2019-03-30T14:43:47.549Z,6.47
2019-03-30T14:46:17.288Z,7.60
2019-03-30T14:48:46.835Z,7.80
2019-03-30T14:51:16.437Z,6.77
2019-03-30T14:53:46.006Z,7.10
2019-03-30T14:56:15.554Z,7.03
2019-03-30T14:58:45.286Z,7.40
2019-03-30T15:01:15.274Z,6.97
2019-03-30T15:03:44.687Z,15.53
2019-03-30T15:06:14.276Z,7.00
2019-03-30T15:08:43.902Z,6.90
2019-03-30T15:11:13.692Z,6.77
2019-03-30T15:13:43.286Z,7.40
2019-03-30T15:16:13.386Z,7.67
2019-03-30T15:18:42.989Z,6.77
2019-03-30T15:21:14.044Z,6.57
2019-03-30T15:23:43.703Z,8.43
2019-03-30T15:26:13.806Z,7.23
2019-03-30T15:28:45.893Z,7.43
2019-03-30T15:31:15.452Z,6.67
2019-03-30T15:33:45.431Z,7.40
2019-03-30T15:36:14.947Z,6.60
2019-03-30T15:38:44.440Z,6.43
2019-03-30T15:41:14.021Z,6.73
2019-03-30T15:43:43.647Z,5.97
2019-03-30T15:46:14.456Z,8.57
2019-03-30T15:48:44.043Z,7.13
2019-03-30T15:51:13.520Z,7.27
2019-03-30T15:53:43.036Z,6.37
2019-03-30T15:56:22.366Z,6.60
2019-03-30T15:58:52.364Z,6.80
2019-03-30T16:01:24.059Z,9.00
2019-03-30T16:03:54.186Z,7.13
2019-03-30T16:06:23.718Z,8.10
2019-03-30T16:08:53.633Z,6.80
2019-03-30T16:11:23.586Z,7.00
2019-03-30T16:13:53.165Z,7.33
2019-03-30T16:16:22.841Z,7.87
2019-03-30T16:18:53.887Z,7.00
2019-03-30T16:21:23.443Z,6.60
2019-03-30T16:23:54.263Z,6.67
2019-03-30T16:26:23.772Z,7.97
2019-03-30T16:28:53.450Z,7.43
2019-03-30T16:31:22.974Z,6.83
2019-03-30T16:33:52.679Z,6.70
2019-03-30T16:36:22.494Z,6.60
2019-03-30T16:38:52.151Z,10.03
2019-03-30T16:41:21.654Z,9.70
2019-03-30T16:43:51.326Z,9.20
2019-03-30T16:46:20.909Z,7.83
2019-03-30T16:48:50.514Z,8.07
2019-03-30T16:51:20.053Z,13.07
2019-03-30T16:53:49.606Z,16.70
2019-03-30T16:56:19.209Z,17.97
2019-03-30T16:58:48.715Z,17.20
2019-03-30T17:01:18.270Z,17.77
2019-03-30T17:03:47.969Z,19.70
2019-03-30T17:06:17.574Z,19.30
2019-03-30T17:08:47.199Z,20.93
2019-03-30T17:11:16.670Z,22.00
2019-03-30T17:13:46.250Z,23.33
2019-03-30T17:16:16.010Z,25.40
2019-03-30T17:18:45.479Z,24.73
2019-03-30T17:21:15.061Z,25.53
2019-03-30T17:23:46.154Z,25.77
2019-03-30T17:26:15.723Z,26.20
2019-03-30T17:28:45.837Z,26.07
2019-03-30T17:31:15.470Z,25.37
2019-03-30T17:33:45.078Z,26.10
2019-03-30T17:36:14.671Z,26.57
2019-03-30T17:38:44.274Z,26.17
2019-03-30T17:41:13.970Z,26.00
2019-03-30T17:43:43.508Z,27.40
2019-03-30T17:46:13.281Z,27.73
2019-03-30T17:48:42.787Z,26.23
2019-03-30T17:51:12.354Z,26.03
2019-03-30T17:53:42.027Z,26.17
2019-03-30T17:56:11.683Z,27.27
2019-03-30T17:58:41.283Z,26.93
2019-03-30T18:01:10.898Z,27.40
2019-03-30T18:03:40.506Z,27.37
2019-03-30T18:06:10.103Z,25.53
2019-03-30T18:08:39.565Z,26.00
2019-03-30T18:11:09.163Z,25.00
2019-03-30T18:13:38.674Z,25.53
2019-03-30T18:16:08.465Z,25.43
2019-03-30T18:18:38.146Z,25.30
2019-03-30T18:21:07.671Z,23.60
2019-03-30T18:23:37.258Z,23.20
2019-03-30T18:26:06.670Z,23.43
2019-03-30T18:28:36.262Z,22.70
2019-03-30T18:31:05.874Z,24.17
2019-03-30T18:33:35.622Z,21.07
2019-03-30T18:36:05.494Z,20.87
2019-03-30T18:38:36.698Z,20.50
2019-03-30T18:41:06.521Z,19.93
2019-03-30T18:43:35.975Z,20.00
2019-03-30T18:46:05.650Z,20.20
2019-03-30T18:48:35.195Z,20.47
2019-03-30T18:51:04.877Z,19.47
2019-03-30T18:53:34.717Z,20.20
2019-03-30T18:56:04.323Z,20.83
2019-03-30T18:58:41.677Z,19.13
2019-03-30T19:01:05.249Z,22.27
2019-03-30T19:03:34.760Z,19.83
2019-03-30T19:06:04.713Z,20.20
2019-03-30T19:08:34.735Z,19.37
2019-03-30T19:11:04.669Z,18.63
2019-03-30T19:13:34.332Z,20.40
2019-03-30T19:16:03.941Z,18.30
2019-03-30T19:18:33.634Z,19.53
2019-03-30T19:21:03.151Z,20.17
2019-03-30T19:23:32.669Z,19.40
2019-03-30T19:26:02.506Z,19.17
2019-03-30T19:28:35.696Z,20.87
2019-03-30T19:31:05.414Z,20.23
2019-03-30T19:33:34.931Z,19.80
2019-03-30T19:36:04.694Z,20.83
2019-03-30T19:38:34.394Z,21.13
2019-03-30T19:41:04.218Z,20.57
2019-03-30T19:43:33.837Z,22.60
2019-03-30T19:46:03.482Z,20.77
2019-03-30T19:48:36.566Z,21.57
2019-03-30T19:51:04.414Z,20.97
2019-03-30T19:53:33.940Z,21.40
2019-03-30T19:56:03.582Z,21.17
2019-03-30T19:58:33.081Z,21.90
2019-03-30T20:01:02.610Z,22.27
2019-03-30T20:03:32.162Z,20.47
2019-03-30T20:06:01.770Z,20.90
2019-03-30T20:08:31.400Z,22.13
2019-03-30T20:11:01.000Z,22.43
2019-03-30T20:13:30.876Z,23.70
2019-03-30T20:16:00.343Z,21.70
2019-03-30T20:18:29.930Z,23.23
2019-03-30T20:20:59.485Z,24.63
2019-03-30T20:23:29.147Z,22.83
2019-03-30T20:25:58.699Z,23.03
2019-03-30T20:28:29.172Z,24.13
2019-03-30T20:31:02.561Z,22.93
2019-03-30T20:33:32.371Z,22.50
2019-03-30T20:36:02.629Z,23.30
2019-03-30T20:38:32.399Z,23.20
2019-03-30T20:41:02.265Z,24.23
2019-03-30T20:43:31.922Z,24.17
2019-03-30T20:46:02.962Z,24.80
2019-03-30T20:48:33.881Z,24.40
2019-03-30T20:51:03.771Z,23.83
2019-03-30T20:53:33.858Z,23.73
2019-03-30T20:56:03.546Z,22.93
2019-03-30T20:58:33.451Z,24.50
2019-03-30T21:01:04.818Z,24.27
2019-03-30T21:03:36.176Z,22.87
2019-03-30T21:06:09.564Z,22.63
2019-03-30T21:08:40.794Z,20.57
2019-03-30T21:11:11.165Z,20.47
2019-03-30T21:13:43.519Z,19.73
2019-03-30T21:16:14.264Z,20.23
2019-03-30T21:18:44.873Z,21.00
2019-03-30T21:21:14.905Z,18.87
2019-03-30T21:23:44.415Z,19.10
2019-03-30T21:26:13.998Z,20.07
2019-03-30T21:28:43.477Z,17.80
2019-03-30T21:31:13.011Z,18.13
2019-03-30T21:33:42.699Z,18.60
2019-03-30T21:36:13.020Z,18.10
2019-03-30T21:38:42.631Z,18.30
2019-03-30T21:41:12.093Z,16.90
2019-03-30T21:43:42.171Z,16.33
2019-03-30T21:46:11.875Z,16.03
2019-03-30T21:48:41.379Z,16.97
2019-03-30T21:51:10.889Z,17.43
2019-03-30T21:53:40.455Z,16.50
2019-03-30T21:56:12.780Z,19.10
2019-03-30T21:58:42.334Z,18.60
2019-03-30T22:01:11.943Z,19.67
2019-03-30T22:03:41.423Z,19.20
2019-03-30T22:06:11.126Z,20.27
2019-03-30T22:08:40.716Z,21.40
2019-03-30T22:11:10.323Z,22.87
2019-03-30T22:13:39.835Z,21.97
2019-03-30T22:16:09.325Z,21.47
2019-03-30T22:18:39.347Z,22.27
2019-03-30T22:21:08.874Z,19.73
2019-03-30T22:23:38.343Z,19.07
2019-03-30T22:26:07.867Z,18.97
2019-03-30T22:28:37.311Z,17.57
2019-03-30T22:31:06.859Z,16.07
2019-03-30T22:33:36.422Z,16.20
2019-03-30T22:36:06.099Z,15.10
2019-03-30T22:38:35.953Z,17.20
2019-03-30T22:41:05.965Z,16.93
2019-03-30T22:43:35.644Z,17.37
2019-03-30T22:46:07.525Z,15.50
2019-03-30T22:48:36.575Z,16.10
2019-03-30T22:51:06.095Z,16.60
2019-03-30T22:53:35.686Z,16.77
2019-03-30T22:56:06.014Z,18.23
2019-03-30T22:58:35.523Z,16.53
2019-03-30T23:01:08.826Z,18.67
2019-03-30T23:03:38.498Z,18.03
2019-03-30T23:06:08.048Z,19.40
2019-03-30T23:08:37.630Z,19.37
2019-03-30T23:11:07.502Z,19.83
2019-03-30T23:13:38.298Z,21.60
2019-03-30T23:16:07.951Z,22.03
2019-03-30T23:18:37.700Z,20.23
2019-03-30T23:21:07.148Z,24.43
2019-03-30T23:23:36.844Z,24.37
2019-03-30T23:26:06.546Z,23.53
2019-03-30T23:28:36.230Z,23.37
2019-03-30T23:31:05.864Z,24.37
2019-03-30T23:33:35.362Z,24.90
2019-03-30T23:36:05.010Z,21.97
2019-03-30T23:38:34.564Z,21.30
2019-03-30T23:41:04.289Z,23.43
2019-03-30T23:43:33.947Z,23.10
2019-03-30T23:46:03.511Z,23.23
2019-03-30T23:48:32.963Z,21.93
2019-03-30T23:51:02.623Z,21.07
2019-03-30T23:53:32.278Z,22.00
2019-03-30T23:56:01.845Z,21.83
2019-03-30T23:58:31.435Z,21.57
